sensor_id;sensor_type;location;lat;lon;timestamp;pressure;altitude;pressure_sealevel;temperature;humidity
41688;BME280;27371;42.686;23.362;2023-04-21T00:01:49;164465.06;;;8.70;78.34
41688;BME280;27371;42.686;23.362;2023-04-21T00:04:14;164493.13;;;8.81;78.76
41688;BME280;27371;42.686;23.362;2023-04-21T00:06:41;164498.47;;;8.83;78.51
41688;BME280;27371;42.686;23.362;2023-04-21T00:09:08;164517.13;;;8.90;78.00
41688;BME280;27371;42.686;23.362;2023-04-21T00:11:35;164563.88;;;9.08;77.55
41688;BME280;27371;42.686;23.362;2023-04-21T00:14:00;164571.88;;;9.11;77.29
41688;BME280;27371;42.686;23.362;2023-04-21T00:16:26;164579.88;;;9.14;76.84
41688;BME280;27371;42.686;23.362;2023-04-21T00:18:51;164583.91;;;9.16;76.79
41688;BME280;27371;42.686;23.362;2023-04-21T00:21:17;164581.22;;;9.14;76.32
41688;BME280;27371;42.686;23.362;2023-04-21T00:23:42;164567.84;;;9.09;76.24
41688;BME280;27371;42.686;23.362;2023-04-21T00:26:08;164551.84;;;9.03;75.88
41688;BME280;27371;42.686;23.362;2023-04-21T00:28:33;164545.16;;;9.01;75.71
41688;BME280;27371;42.686;23.362;2023-04-21T00:30:58;164539.88;;;8.99;76.08
41688;BME280;27371;42.686;23.362;2023-04-21T00:33:24;164541.19;;;8.99;76.39
41688;BME280;27371;42.686;23.362;2023-04-21T00:35:50;164533.19;;;8.96;76.16
41688;BME280;27371;42.686;23.362;2023-04-21T00:38:15;164534.50;;;8.97;76.47
41688;BME280;27371;42.686;23.362;2023-04-21T00:40:40;164553.16;;;9.04;76.55
41688;BME280;27371;42.686;23.362;2023-04-21T00:43:06;164497.13;;;8.82;75.17
41688;BME280;27371;42.686;23.362;2023-04-21T00:45:32;164390.34;;;8.41;75.07
41688;BME280;27371;42.686;23.362;2023-04-21T00:47:57;164336.91;;;8.21;76.66
41688;BME280;27371;42.686;23.362;2023-04-21T00:50:23;164310.25;;;8.11;78.14
41688;BME280;27371;42.686;23.362;2023-04-21T00:52:49;164180.84;;;7.61;79.43
41688;BME280;27371;42.686;23.362;2023-04-21T00:55:15;164284.88;;;8.01;80.11
41688;BME280;27371;42.686;23.362;2023-04-21T00:57:41;164272.84;;;7.96;80.29
41688;BME280;27371;42.686;23.362;2023-04-21T01:00:07;164263.53;;;7.93;81.62
41688;BME280;27371;42.686;23.362;2023-04-21T01:02:36;164304.88;;;8.09;81.63
41688;BME280;27371;42.686;23.362;2023-04-21T01:05:05;164248.84;;;7.87;81.09
41688;BME280;27371;42.686;23.362;2023-04-21T01:07:34;164284.88;;;8.01;80.65
41688;BME280;27371;42.686;23.362;2023-04-21T01:10:00;164364.94;;;8.32;80.34
41688;BME280;27371;42.686;23.362;2023-04-21T01:12:26;164386.31;;;8.40;79.92
41688;BME280;27371;42.686;23.362;2023-04-21T01:14:51;164398.34;;;8.44;79.54
41688;BME280;27371;42.686;23.362;2023-04-21T01:17:17;164395.66;;;8.43;78.88
41688;BME280;27371;42.686;23.362;2023-04-21T01:19:43;164372.91;;;8.35;78.70
41688;BME280;27371;42.686;23.362;2023-04-21T01:22:11;164430.38;;;8.57;78.51
41688;BME280;27371;42.686;23.362;2023-04-21T01:24:45;164445.03;;;8.62;78.35
41688;BME280;27371;42.686;23.362;2023-04-21T01:27:13;164441.06;;;8.61;78.04
41688;BME280;27371;42.686;23.362;2023-04-21T01:29:41;164414.34;;;8.51;77.65
41688;BME280;27371;42.686;23.362;2023-04-21T01:32:12;164425.06;;;8.55;77.45
41688;BME280;27371;42.686;23.362;2023-04-21T01:34:39;164398.34;;;8.44;77.55
41688;BME280;27371;42.686;23.362;2023-04-21T01:37:10;164386.31;;;8.40;78.01
41688;BME280;27371;42.686;23.362;2023-04-21T01:39:43;164299.53;;;8.07;76.60
41688;BME280;27371;42.686;23.362;2023-04-21T01:42:09;164204.84;;;7.70;76.28
41688;BME280;27371;42.686;23.362;2023-04-21T01:44:36;164138.16;;;7.45;78.37
41688;BME280;27371;42.686;23.362;2023-04-21T01:47:01;164107.44;;;7.33;80.14
41688;BME280;27371;42.686;23.362;2023-04-21T01:49:27;164139.47;;;7.45;80.97
41688;BME280;27371;42.686;23.362;2023-04-21T01:51:52;164140.81;;;7.46;81.93
41688;BME280;27371;42.686;23.362;2023-04-21T01:54:18;164155.47;;;7.51;82.49
41688;BME280;27371;42.686;23.362;2023-04-21T01:56:44;164162.16;;;7.54;82.79
41688;BME280;27371;42.686;23.362;2023-04-21T01:59:09;164159.50;;;7.53;82.40
41688;BME280;27371;42.686;23.362;2023-04-21T02:01:35;164166.16;;;7.55;82.68
41688;BME280;27371;42.686;23.362;2023-04-21T02:04:01;164182.16;;;7.62;82.45
41688;BME280;27371;42.686;23.362;2023-04-21T02:06:27;164227.50;;;7.79;82.25
41688;BME280;27371;42.686;23.362;2023-04-21T02:08:52;164243.50;;;7.85;82.22
41688;BME280;27371;42.686;23.362;2023-04-21T02:11:18;164230.16;;;7.80;81.93
41688;BME280;27371;42.686;23.362;2023-04-21T02:13:43;164232.84;;;7.81;81.64
41688;BME280;27371;42.686;23.362;2023-04-21T02:16:08;164268.88;;;7.95;81.45
41688;BME280;27371;42.686;23.362;2023-04-21T02:18:34;164267.53;;;7.94;81.03
41688;BME280;27371;42.686;23.362;2023-04-21T02:21:04;164268.88;;;7.95;80.77
41688;BME280;27371;42.686;23.362;2023-04-21T02:23:30;164268.88;;;7.95;80.53
41688;BME280;27371;42.686;23.362;2023-04-21T02:25:56;164283.53;;;8.00;80.55
41688;BME280;27371;42.686;23.362;2023-04-21T02:28:21;164298.22;;;8.06;79.94
41688;BME280;27371;42.686;23.362;2023-04-21T02:30:47;164306.22;;;8.09;79.74
41688;BME280;27371;42.686;23.362;2023-04-21T02:33:12;164310.25;;;8.11;79.56
41688;BME280;27371;42.686;23.362;2023-04-21T02:35:38;164211.50;;;7.73;77.75
41688;BME280;27371;42.686;23.362;2023-04-21T02:38:03;164187.50;;;7.64;76.40
41688;BME280;27371;42.686;23.362;2023-04-21T02:40:31;164118.13;;;7.37;77.72
41688;BME280;27371;42.686;23.362;2023-04-21T02:42:57;164075.47;;;7.21;79.55
41688;BME280;27371;42.686;23.362;2023-04-21T02:45:23;164102.16;;;7.31;80.63
41688;BME280;27371;42.686;23.362;2023-04-21T02:47:48;164102.16;;;7.31;81.17
41688;BME280;27371;42.686;23.362;2023-04-21T02:50:14;164110.13;;;7.34;82.31
41688;BME280;27371;42.686;23.362;2023-04-21T02:52:39;164108.81;;;7.33;82.87
41688;BME280;27371;42.686;23.362;2023-04-21T02:55:05;164144.81;;;7.47;82.86
41688;BME280;27371;42.686;23.362;2023-04-21T02:57:31;164170.13;;;7.57;82.74
41688;BME280;27371;42.686;23.362;2023-04-21T02:59:57;164198.16;;;7.68;82.00
41688;BME280;27371;42.686;23.362;2023-04-21T03:02:22;164234.16;;;7.81;81.69
41688;BME280;27371;42.686;23.362;2023-04-21T03:04:47;164259.53;;;7.91;81.29
41688;BME280;27371;42.686;23.362;2023-04-21T03:07:13;164279.53;;;7.99;80.88
41688;BME280;27371;42.686;23.362;2023-04-21T03:09:39;164311.56;;;8.11;80.50
41688;BME280;27371;42.686;23.362;2023-04-21T03:12:05;164331.59;;;8.19;79.96
41688;BME280;27371;42.686;23.362;2023-04-21T03:14:31;164331.59;;;8.19;79.75
41688;BME280;27371;42.686;23.362;2023-04-21T03:16:56;164359.56;;;8.30;78.78
41688;BME280;27371;42.686;23.362;2023-04-21T03:19:21;164360.94;;;8.30;79.08
41688;BME280;27371;42.686;23.362;2023-04-21T03:21:47;164389.03;;;8.41;78.88
41688;BME280;27371;42.686;23.362;2023-04-21T03:24:13;164407.69;;;8.48;78.79
41688;BME280;27371;42.686;23.362;2023-04-21T03:26:38;164415.69;;;8.51;78.29
41688;BME280;27371;42.686;23.362;2023-04-21T03:29:07;164435.72;;;8.59;78.26
41688;BME280;27371;42.686;23.362;2023-04-21T03:31:32;164386.31;;;8.40;76.26
41688;BME280;27371;42.686;23.362;2023-04-21T03:33:58;164292.88;;;8.04;74.92
41688;BME280;27371;42.686;23.362;2023-04-21T03:36:23;164242.16;;;7.85;76.79
41688;BME280;27371;42.686;23.362;2023-04-21T03:38:49;164212.81;;;7.73;78.40
41688;BME280;27371;42.686;23.362;2023-04-21T03:41:14;164216.84;;;7.75;80.09
41688;BME280;27371;42.686;23.362;2023-04-21T03:43:40;164214.16;;;7.74;80.37
41688;BME280;27371;42.686;23.362;2023-04-21T03:46:05;164262.19;;;7.92;81.26
41688;BME280;27371;42.686;23.362;2023-04-21T03:48:31;164291.53;;;8.03;80.98
41688;BME280;27371;42.686;23.362;2023-04-21T03:50:56;164350.25;;;8.26;80.13
41688;BME280;27371;42.686;23.362;2023-04-21T03:53:22;164395.66;;;8.43;79.14
41688;BME280;27371;42.686;23.362;2023-04-21T03:55:50;164439.75;;;8.60;78.38
41688;BME280;27371;42.686;23.362;2023-04-21T03:58:16;164470.44;;;8.72;77.56
41688;BME280;27371;42.686;23.362;2023-04-21T04:00:41;164510.44;;;8.87;77.02
41688;BME280;27371;42.686;23.362;2023-04-21T04:03:07;164547.88;;;9.02;76.39
41688;BME280;27371;42.686;23.362;2023-04-21T04:05:34;164555.88;;;9.05;75.68
41688;BME280;27371;42.686;23.362;2023-04-21T04:08:00;164534.50;;;8.97;75.02
41688;BME280;27371;42.686;23.362;2023-04-21T04:10:26;164674.69;;;9.50;77.76
41688;BME280;27371;42.686;23.362;2023-04-21T04:12:51;164712.06;;;9.65;75.96
41688;BME280;27371;42.686;23.362;2023-04-21T04:15:17;164744.16;;;9.77;74.05
41688;BME280;27371;42.686;23.362;2023-04-21T04:17:42;164769.50;;;9.87;73.45
41688;BME280;27371;42.686;23.362;2023-04-21T04:20:08;164786.91;;;9.93;72.91
41688;BME280;27371;42.686;23.362;2023-04-21T04:22:34;164851.03;;;10.18;72.20
41688;BME280;27371;42.686;23.362;2023-04-21T04:24:59;164900.53;;;10.37;71.24
41688;BME280;27371;42.686;23.362;2023-04-21T04:27:26;164913.84;;;10.42;70.58
41688;BME280;27371;42.686;23.362;2023-04-21T04:29:52;164797.56;;;9.97;69.81
41688;BME280;27371;42.686;23.362;2023-04-21T04:32:18;164924.56;;;10.46;69.41
41688;BME280;27371;42.686;23.362;2023-04-21T04:34:43;164955.28;;;10.58;69.09
41688;BME280;27371;42.686;23.362;2023-04-21T04:37:09;164987.38;;;10.70;68.85
41688;BME280;27371;42.686;23.362;2023-04-21T04:39:35;164999.38;;;10.75;68.84
41688;BME280;27371;42.686;23.362;2023-04-21T04:42:01;164987.38;;;10.70;68.11
41688;BME280;27371;42.686;23.362;2023-04-21T04:44:28;165036.81;;;10.89;67.82
41688;BME280;27371;42.686;23.362;2023-04-21T04:46:54;165064.84;;;11.00;67.75
41688;BME280;27371;42.686;23.362;2023-04-21T04:49:20;165051.53;;;10.95;67.66
41688;BME280;27371;42.686;23.362;2023-04-21T04:51:46;164927.22;;;10.47;68.66
41688;BME280;27371;42.686;23.362;2023-04-21T04:54:11;164796.22;;;9.97;70.38
41688;BME280;27371;42.686;23.362;2023-04-21T04:56:37;164853.69;;;10.19;70.86
41688;BME280;27371;42.686;23.362;2023-04-21T04:59:02;164889.81;;;10.33;70.91
41688;BME280;27371;42.686;23.362;2023-04-21T05:01:28;164916.53;;;10.43;70.85
41688;BME280;27371;42.686;23.362;2023-04-21T05:03:57;164947.25;;;10.55;70.77
41688;BME280;27371;42.686;23.362;2023-04-21T05:06:22;164912.50;;;10.41;70.11
41688;BME280;27371;42.686;23.362;2023-04-21T05:08:48;164826.94;;;10.09;70.56
41688;BME280;27371;42.686;23.362;2023-04-21T05:11:13;164824.28;;;10.08;71.37
41688;BME280;27371;42.686;23.362;2023-04-21T05:13:39;164829.66;;;10.10;71.05
41688;BME280;27371;42.686;23.362;2023-04-21T05:16:05;164881.78;;;10.30;70.69
41688;BME280;27371;42.686;23.362;2023-04-21T05:18:30;164949.91;;;10.56;70.96
41688;BME280;27371;42.686;23.362;2023-04-21T05:20:56;165003.41;;;10.76;70.26
41688;BME280;27371;42.686;23.362;2023-04-21T05:23:21;165058.16;;;10.97;68.88
41688;BME280;27371;42.686;23.362;2023-04-21T05:25:47;165092.94;;;11.10;67.85
41688;BME280;27371;42.686;23.362;2023-04-21T05:28:13;165123.72;;;11.22;67.83
41688;BME280;27371;42.686;23.362;2023-04-21T05:30:39;165141.06;;;11.29;67.39
41688;BME280;27371;42.686;23.362;2023-04-21T05:33:05;165166.50;;;11.39;66.94
41688;BME280;27371;42.686;23.362;2023-04-21T05:35:31;165215.94;;;11.57;66.74
41688;BME280;27371;42.686;23.362;2023-04-21T05:37:57;165310.97;;;11.94;65.52
41688;BME280;27371;42.686;23.362;2023-04-21T05:40:22;165408.56;;;12.31;64.07
41688;BME280;27371;42.686;23.362;2023-04-21T05:42:48;165438.00;;;12.42;62.77
41688;BME280;27371;42.686;23.362;2023-04-21T05:45:14;165468.75;;;12.54;62.97
41688;BME280;27371;42.686;23.362;2023-04-21T05:47:39;165555.78;;;12.87;62.14
41688;BME280;27371;42.686;23.362;2023-04-21T05:50:06;165660.19;;;13.27;61.08
41688;BME280;27371;42.686;23.362;2023-04-21T05:52:31;165763.25;;;13.67;59.21
41688;BME280;27371;42.686;23.362;2023-04-21T05:54:57;165866.38;;;14.06;56.96
41688;BME280;27371;42.686;23.362;2023-04-21T05:57:26;165945.41;;;14.36;55.84
41688;BME280;27371;42.686;23.362;2023-04-21T05:59:51;166004.38;;;14.59;54.61
41688;BME280;27371;42.686;23.362;2023-04-21T06:02:17;166071.34;;;14.84;53.97
41688;BME280;27371;42.686;23.362;2023-04-21T06:04:42;166087.41;;;14.90;53.29
41688;BME280;27371;42.686;23.362;2023-04-21T06:07:08;166086.06;;;14.90;53.28
41688;BME280;27371;42.686;23.362;2023-04-21T06:09:35;166114.22;;;15.01;53.00
41688;BME280;27371;42.686;23.362;2023-04-21T06:12:01;166178.53;;;15.25;52.32
41688;BME280;27371;42.686;23.362;2023-04-21T06:14:27;166205.34;;;15.35;52.10
41688;BME280;27371;42.686;23.362;2023-04-21T06:16:52;166233.44;;;15.46;50.97
41688;BME280;27371;42.686;23.362;2023-04-21T06:19:18;166229.44;;;15.45;51.25
41688;BME280;27371;42.686;23.362;2023-04-21T06:21:43;166189.22;;;15.29;51.42
41688;BME280;27371;42.686;23.362;2023-04-21T06:24:09;166250.88;;;15.53;50.89
41688;BME280;27371;42.686;23.362;2023-04-21T06:26:34;166295.16;;;15.70;51.29
41688;BME280;27371;42.686;23.362;2023-04-21T06:29:00;166335.38;;;15.85;50.30
41688;BME280;27371;42.686;23.362;2023-04-21T06:31:25;166344.75;;;15.89;50.65
41688;BME280;27371;42.686;23.362;2023-04-21T06:33:51;166376.91;;;16.01;50.31
41688;BME280;27371;42.686;23.362;2023-04-21T06:36:16;166360.81;;;15.95;50.64
41688;BME280;27371;42.686;23.362;2023-04-21T06:38:42;166401.06;;;16.10;50.65
41688;BME280;27371;42.686;23.362;2023-04-21T06:41:10;166494.91;;;16.46;49.63
41688;BME280;27371;42.686;23.362;2023-04-21T06:43:36;166541.81;;;16.64;49.40
41688;BME280;27371;42.686;23.362;2023-04-21T06:46:02;166551.19;;;16.67;48.59
41688;BME280;27371;42.686;23.362;2023-04-21T06:48:27;166594.16;;;16.84;49.32
41688;BME280;27371;42.686;23.362;2023-04-21T06:50:54;166643.78;;;17.03;48.20
41688;BME280;27371;42.686;23.362;2023-04-21T06:53:20;166560.63;;;16.71;48.86
41688;BME280;27371;42.686;23.362;2023-04-21T06:55:46;166541.81;;;16.64;48.80
41688;BME280;27371;42.686;23.362;2023-04-21T06:58:12;166543.16;;;16.64;49.54
41688;BME280;27371;42.686;23.362;2023-04-21T07:00:37;166555.25;;;16.69;49.37
41688;BME280;27371;42.686;23.362;2023-04-21T07:03:03;166520.38;;;16.56;49.23
41688;BME280;27371;42.686;23.362;2023-04-21T07:05:28;166524.41;;;16.57;49.65
41688;BME280;27371;42.686;23.362;2023-04-21T07:07:54;166559.25;;;16.70;49.81
41688;BME280;27371;42.686;23.362;2023-04-21T07:10:25;166557.91;;;16.70;49.10
41688;BME280;27371;42.686;23.362;2023-04-21T07:12:50;166587.47;;;16.81;48.64
41688;BME280;27371;42.686;23.362;2023-04-21T07:15:16;166600.88;;;16.86;48.33
41688;BME280;27371;42.686;23.362;2023-04-21T07:17:41;166621.00;;;16.94;47.94
41688;BME280;27371;42.686;23.362;2023-04-21T07:20:07;166649.16;;;17.05;47.29
41688;BME280;27371;42.686;23.362;2023-04-21T07:22:33;166662.59;;;17.10;47.27
41688;BME280;27371;42.686;23.362;2023-04-21T07:25:03;166686.72;;;17.19;47.11
41688;BME280;27371;42.686;23.362;2023-04-21T07:27:34;166579.41;;;16.78;47.13
41688;BME280;27371;42.686;23.362;2023-04-21T07:30:04;166533.78;;;16.61;47.83
41688;BME280;27371;42.686;23.362;2023-04-21T07:32:29;166552.56;;;16.68;48.18
41688;BME280;27371;42.686;23.362;2023-04-21T07:34:55;166553.91;;;16.68;47.66
41688;BME280;27371;42.686;23.362;2023-04-21T07:37:21;166535.13;;;16.61;48.10
41688;BME280;27371;42.686;23.362;2023-04-21T07:39:46;166571.31;;;16.75;48.31
41688;BME280;27371;42.686;23.362;2023-04-21T07:42:12;166607.59;;;16.89;48.52
41688;BME280;27371;42.686;23.362;2023-04-21T07:44:38;166686.72;;;17.19;48.36
41688;BME280;27371;42.686;23.362;2023-04-21T07:47:03;166755.16;;;17.45;46.98
41688;BME280;27371;42.686;23.362;2023-04-21T07:49:30;166803.41;;;17.64;46.24
41688;BME280;27371;42.686;23.362;2023-04-21T07:51:55;166804.75;;;17.64;45.37
41688;BME280;27371;42.686;23.362;2023-04-21T07:54:21;166832.94;;;17.75;45.25
41688;BME280;27371;42.686;23.362;2023-04-21T07:56:46;166878.63;;;17.92;45.66
41688;BME280;27371;42.686;23.362;2023-04-21T07:59:11;166922.91;;;18.09;44.52
41688;BME280;27371;42.686;23.362;2023-04-21T08:01:37;166937.69;;;18.15;43.93
41688;BME280;27371;42.686;23.362;2023-04-21T08:04:02;166879.97;;;17.93;44.88
41688;BME280;27371;42.686;23.362;2023-04-21T08:06:28;166929.63;;;18.12;44.16
41688;BME280;27371;42.686;23.362;2023-04-21T08:08:54;166910.81;;;18.05;44.87
41688;BME280;27371;42.686;23.362;2023-04-21T08:11:20;166906.81;;;18.03;44.65
41688;BME280;27371;42.686;23.362;2023-04-21T08:13:46;166828.94;;;17.73;44.80
41688;BME280;27371;42.686;23.362;2023-04-21T08:16:12;166756.50;;;17.46;45.42
41688;BME280;27371;42.686;23.362;2023-04-21T08:18:37;166771.25;;;17.51;46.24
41688;BME280;27371;42.686;23.362;2023-04-21T08:21:03;166780.63;;;17.55;45.89
41688;BME280;27371;42.686;23.362;2023-04-21T08:23:28;166806.13;;;17.65;45.50
41688;BME280;27371;42.686;23.362;2023-04-21T08:25:55;166830.28;;;17.74;45.57
41688;BME280;27371;42.686;23.362;2023-04-21T08:28:20;166894.72;;;17.98;44.99
41688;BME280;27371;42.686;23.362;2023-04-21T08:30:46;166902.78;;;18.01;44.25
41688;BME280;27371;42.686;23.362;2023-04-21T08:33:11;166928.31;;;18.11;44.45
41688;BME280;27371;42.686;23.362;2023-04-21T08:35:41;166949.72;;;18.19;44.07
41688;BME280;27371;42.686;23.362;2023-04-21T08:38:07;166968.53;;;18.27;44.26
41688;BME280;27371;42.686;23.362;2023-04-21T08:40:37;166949.72;;;18.19;43.25
41688;BME280;27371;42.686;23.362;2023-04-21T08:43:04;166994.06;;;18.36;42.72
41688;BME280;27371;42.686;23.362;2023-04-21T08:45:30;166980.63;;;18.31;42.47
41688;BME280;27371;42.686;23.362;2023-04-21T08:47:58;166959.16;;;18.23;43.07
41688;BME280;27371;42.686;23.362;2023-04-21T08:50:26;166957.81;;;18.22;43.29
41688;BME280;27371;42.686;23.362;2023-04-21T08:52:53;166976.59;;;18.30;43.27
41688;BME280;27371;42.686;23.362;2023-04-21T08:55:19;167024.91;;;18.48;43.49
41688;BME280;27371;42.686;23.362;2023-04-21T08:57:45;167015.53;;;18.44;42.92
41688;BME280;27371;42.686;23.362;2023-04-21T09:00:11;167012.81;;;18.43;42.57
41688;BME280;27371;42.686;23.362;2023-04-21T09:02:59;167027.59;;;18.49;43.32
41688;BME280;27371;42.686;23.362;2023-04-21T09:05:27;167075.94;;;18.67;43.08
41688;BME280;27371;42.686;23.362;2023-04-21T09:08:06;167126.97;;;18.87;41.75
41688;BME280;27371;42.686;23.362;2023-04-21T09:10:45;167183.38;;;19.08;41.25
41688;BME280;27371;42.686;23.362;2023-04-21T09:13:12;167220.97;;;19.23;41.01
41688;BME280;27371;42.686;23.362;2023-04-21T09:15:42;167301.53;;;19.53;40.92
41688;BME280;27371;42.686;23.362;2023-04-21T09:18:19;167308.25;;;19.56;39.82
41688;BME280;27371;42.686;23.362;2023-04-21T09:20:48;167280.03;;;19.45;39.43
41688;BME280;27371;42.686;23.362;2023-04-21T09:23:14;167202.16;;;19.16;40.55
41688;BME280;27371;42.686;23.362;2023-04-21T09:25:44;167172.63;;;19.04;40.83
41688;BME280;27371;42.686;23.362;2023-04-21T09:28:11;167085.31;;;18.71;40.31
41688;BME280;27371;42.686;23.362;2023-04-21T09:30:38;167050.41;;;18.58;40.81
41688;BME280;27371;42.686;23.362;2023-04-21T09:33:04;167071.88;;;18.66;40.54
41688;BME280;27371;42.686;23.362;2023-04-21T09:35:35;167074.59;;;18.67;40.76
41688;BME280;27371;42.686;23.362;2023-04-21T09:38:02;167069.22;;;18.65;39.06
41688;BME280;27371;42.686;23.362;2023-04-21T09:40:30;167037.00;;;18.53;39.66
41688;BME280;27371;42.686;23.362;2023-04-21T09:42:56;166977.91;;;18.30;39.73
41688;BME280;27371;42.686;23.362;2023-04-21T09:45:26;166967.19;;;18.26;38.80
41688;BME280;27371;42.686;23.362;2023-04-21T09:47:54;166975.25;;;18.29;39.69
41688;BME280;27371;42.686;23.362;2023-04-21T09:50:21;166960.50;;;18.23;39.67
41688;BME280;27371;42.686;23.362;2023-04-21T09:52:49;166936.34;;;18.14;40.08
41688;BME280;27371;42.686;23.362;2023-04-21T09:55:17;166939.00;;;18.15;40.82
41688;BME280;27371;42.686;23.362;2023-04-21T09:57:43;166976.59;;;18.30;40.73
41688;BME280;27371;42.686;23.362;2023-04-21T10:00:11;166994.06;;;18.36;40.73
41688;BME280;27371;42.686;23.362;2023-04-21T10:02:43;166981.97;;;18.32;40.49
41688;BME280;27371;42.686;23.362;2023-04-21T10:05:09;166960.50;;;18.23;40.65
41688;BME280;27371;42.686;23.362;2023-04-21T10:07:35;166967.19;;;18.26;40.58
41688;BME280;27371;42.686;23.362;2023-04-21T10:10:01;166941.69;;;18.16;40.32
41688;BME280;27371;42.686;23.362;2023-04-21T10:12:27;166944.41;;;18.17;40.01
41688;BME280;27371;42.686;23.362;2023-04-21T10:14:54;166944.41;;;18.17;39.94
41688;BME280;27371;42.686;23.362;2023-04-21T10:17:26;166947.06;;;18.18;40.94
41688;BME280;27371;42.686;23.362;2023-04-21T10:19:56;166995.38;;;18.37;41.30
41688;BME280;27371;42.686;23.362;2023-04-21T10:22:26;166991.34;;;18.35;41.85
41688;BME280;27371;42.686;23.362;2023-04-21T10:24:57;166964.53;;;18.25;41.79
41688;BME280;27371;42.686;23.362;2023-04-21T10:29:57;166968.53;;;18.27;42.38
41688;BME280;27371;42.686;23.362;2023-04-21T10:32:43;167014.16;;;18.44;41.75
41688;BME280;27371;42.686;23.362;2023-04-21T10:37:57;166959.16;;;18.23;41.30
41688;BME280;27371;42.686;23.362;2023-04-21T10:40:33;166951.09;;;18.20;41.92
41688;BME280;27371;42.686;23.362;2023-04-21T10:43:01;166909.50;;;18.04;42.71
41688;BME280;27371;42.686;23.362;2023-04-21T10:45:27;166904.13;;;18.02;42.72
41688;BME280;27371;42.686;23.362;2023-04-21T10:47:52;166973.91;;;18.29;42.81
41688;BME280;27371;42.686;23.362;2023-04-21T10:50:28;166998.06;;;18.38;41.89
41688;BME280;27371;42.686;23.362;2023-04-21T10:53:06;167031.63;;;18.51;41.76
41688;BME280;27371;42.686;23.362;2023-04-21T10:55:33;167039.69;;;18.54;40.35
41688;BME280;27371;42.686;23.362;2023-04-21T10:58:01;167059.81;;;18.61;39.87
41688;BME280;27371;42.686;23.362;2023-04-21T11:00:27;167097.44;;;18.76;38.91
41688;BME280;27371;42.686;23.362;2023-04-21T11:02:54;167061.16;;;18.62;39.34
41688;BME280;27371;42.686;23.362;2023-04-21T11:05:26;167054.44;;;18.59;39.78
41688;BME280;27371;42.686;23.362;2023-04-21T11:08:01;167027.59;;;18.49;38.43
41688;BME280;27371;42.686;23.362;2023-04-21T11:10:26;167003.44;;;18.40;38.53
41688;BME280;27371;42.686;23.362;2023-04-21T11:12:56;166965.88;;;18.25;41.32
41688;BME280;27371;42.686;23.362;2023-04-21T11:15:21;166812.84;;;17.67;42.37
41688;BME280;27371;42.686;23.362;2023-04-21T11:17:47;166788.66;;;17.58;43.92
41688;BME280;27371;42.686;23.362;2023-04-21T11:20:13;166794.03;;;17.60;44.73
41688;BME280;27371;42.686;23.362;2023-04-21T11:22:39;166748.44;;;17.43;45.37
41688;BME280;27371;42.686;23.362;2023-04-21T11:25:05;166781.94;;;17.55;45.81
41688;BME280;27371;42.686;23.362;2023-04-21T11:27:30;166795.38;;;17.61;45.46
41688;BME280;27371;42.686;23.362;2023-04-21T11:29:56;166830.28;;;17.74;45.72
41688;BME280;27371;42.686;23.362;2023-04-21T11:32:22;166896.06;;;17.99;42.91
41688;BME280;27371;42.686;23.362;2023-04-21T11:34:48;166959.16;;;18.23;42.48
41688;BME280;27371;42.686;23.362;2023-04-21T11:37:16;166956.44;;;18.22;42.65
41688;BME280;27371;42.686;23.362;2023-04-21T11:39:42;166972.59;;;18.28;43.67
41688;BME280;27371;42.686;23.362;2023-04-21T11:42:08;166961.81;;;18.24;43.78
41688;BME280;27371;42.686;23.362;2023-04-21T11:44:40;166900.13;;;18.00;44.37
41688;BME280;27371;42.686;23.362;2023-04-21T11:49:46;166816.84;;;17.69;43.71
41688;BME280;27371;42.686;23.362;2023-04-21T11:52:38;166862.50;;;17.86;43.23
41688;BME280;27371;42.686;23.362;2023-04-21T11:55:15;166855.84;;;17.84;42.28
41688;BME280;27371;42.686;23.362;2023-04-21T11:57:43;166823.56;;;17.71;42.55
41688;BME280;27371;42.686;23.362;2023-04-21T12:00:10;166812.84;;;17.67;43.07
41688;BME280;27371;42.686;23.362;2023-04-21T12:02:36;166834.31;;;17.75;42.45
41688;BME280;27371;42.686;23.362;2023-04-21T12:07:35;166874.59;;;17.91;40.72
41688;BME280;27371;42.686;23.362;2023-04-21T12:10:07;166874.59;;;17.91;40.76
41688;BME280;27371;42.686;23.362;2023-04-21T12:12:36;166902.78;;;18.01;40.18
41688;BME280;27371;42.686;23.362;2023-04-21T12:15:01;166939.00;;;18.15;40.12
41688;BME280;27371;42.686;23.362;2023-04-21T12:17:35;166980.63;;;18.31;39.91
41688;BME280;27371;42.686;23.362;2023-04-21T12:20:04;167004.78;;;18.40;39.17
41688;BME280;27371;42.686;23.362;2023-04-21T12:22:33;166971.19;;;18.28;38.82
41688;BME280;27371;42.686;23.362;2023-04-21T12:24:59;166916.19;;;18.07;38.89
41688;BME280;27371;42.686;23.362;2023-04-21T12:27:26;166706.84;;;17.27;40.47
41688;BME280;27371;42.686;23.362;2023-04-21T12:29:51;166563.28;;;16.72;42.25
41688;BME280;27371;42.686;23.362;2023-04-21T12:32:17;166528.41;;;16.59;42.88
41688;BME280;27371;42.686;23.362;2023-04-21T12:34:42;166567.31;;;16.74;42.98
41688;BME280;27371;42.686;23.362;2023-04-21T12:37:07;166653.16;;;17.06;42.01
41688;BME280;27371;42.686;23.362;2023-04-21T12:39:33;166690.75;;;17.21;41.83
41688;BME280;27371;42.686;23.362;2023-04-21T12:41:58;166710.84;;;17.28;42.21
41688;BME280;27371;42.686;23.362;2023-04-21T12:44:24;166702.81;;;17.25;42.03
41688;BME280;27371;42.686;23.362;2023-04-21T12:46:51;166678.69;;;17.16;42.44
41688;BME280;27371;42.686;23.362;2023-04-21T12:49:17;166717.56;;;17.31;42.21
41688;BME280;27371;42.686;23.362;2023-04-21T12:51:43;166669.31;;;17.12;41.73